createdAt,value
2019-05-20T00:01:21.765Z,12.80
2019-05-20T00:03:49.420Z,12.80
2019-05-20T00:06:17.080Z,12.90
2019-05-20T00:08:44.935Z,12.70
2019-05-20T00:11:12.602Z,12.60
2019-05-20T00:13:40.326Z,12.60
2019-05-20T00:16:08.018Z,12.50
2019-05-20T00:18:35.671Z,12.50
2019-05-20T00:21:03.351Z,12.50
2019-05-20T00:23:31.155Z,12.50
2019-05-20T00:25:58.815Z,12.50
2019-05-20T00:28:26.464Z,12.40
2019-05-20T00:30:54.511Z,12.30
2019-05-20T00:33:22.162Z,12.30
2019-05-20T00:35:49.879Z,12.40
2019-05-20T00:38:17.587Z,12.40
2019-05-20T00:40:45.298Z,12.10
2019-05-20T00:43:13.212Z,11.90
2019-05-20T00:45:41.672Z,11.90
2019-05-20T00:48:09.351Z,11.90
2019-05-20T00:50:37.008Z,11.80
2019-05-20T00:53:04.720Z,11.70
2019-05-20T00:55:33.354Z,11.60
2019-05-20T00:58:01.333Z,11.60
2019-05-20T01:00:29.218Z,11.60
2019-05-20T01:02:57.656Z,11.60
2019-05-20T01:05:25.540Z,11.70
2019-05-20T01:07:53.325Z,11.80
2019-05-20T01:10:22.061Z,11.80
2019-05-20T01:12:49.694Z,11.70
2019-05-20T01:15:17.570Z,11.60
2019-05-20T01:17:45.207Z,11.60
2019-05-20T01:20:13.142Z,11.50
2019-05-20T01:22:40.939Z,11.40
2019-05-20T01:25:08.697Z,11.20
2019-05-20T01:27:36.390Z,11.20
2019-05-20T01:30:05.945Z,11.10
2019-05-20T01:32:33.595Z,10.90
2019-05-20T01:35:01.287Z,10.90
2019-05-20T01:37:28.942Z,11.00
2019-05-20T01:39:56.659Z,11.00
2019-05-20T01:42:24.448Z,11.00
2019-05-20T01:44:52.375Z,10.90
2019-05-20T01:47:20.101Z,10.90
2019-05-20T01:49:47.969Z,10.90
2019-05-20T01:52:15.884Z,10.90
2019-05-20T01:54:43.586Z,10.90
2019-05-20T01:57:11.391Z,11.00
2019-05-20T01:59:39.297Z,10.90
2019-05-20T02:02:06.955Z,10.90
2019-05-20T02:04:34.732Z,10.80
2019-05-20T02:07:02.379Z,10.80
2019-05-20T02:09:30.030Z,10.70
2019-05-20T02:11:57.845Z,10.60
2019-05-20T02:14:27.139Z,10.50
2019-05-20T02:16:54.845Z,10.50
2019-05-20T02:19:22.495Z,10.50
2019-05-20T02:21:50.148Z,10.40
2019-05-20T02:24:17.932Z,10.40
2019-05-20T02:26:45.651Z,10.40
2019-05-20T02:29:13.304Z,10.40
2019-05-20T02:31:41.093Z,10.40
2019-05-20T02:34:08.739Z,10.40
2019-05-20T02:36:36.401Z,10.30
2019-05-20T02:39:05.896Z,10.30
2019-05-20T02:41:33.891Z,10.40
2019-05-20T02:44:01.539Z,10.40
2019-05-20T02:46:29.293Z,10.30
2019-05-20T02:48:56.985Z,10.20
2019-05-20T02:51:33.617Z,10.20
2019-05-20T02:54:02.290Z,10.10
2019-05-20T02:56:30.811Z,10.10
2019-05-20T02:58:58.804Z,10.10
2019-05-20T03:01:26.533Z,10.00
2019-05-20T03:04:10.065Z,10.00
2019-05-20T03:06:23.812Z,10.10
2019-05-20T03:08:51.461Z,10.10
2019-05-20T03:11:19.235Z,10.10
2019-05-20T03:13:46.960Z,10.10
2019-05-20T03:16:15.703Z,10.10
2019-05-20T03:18:43.665Z,10.10
2019-05-20T03:21:11.396Z,10.10
2019-05-20T03:23:39.112Z,10.10
2019-05-20T03:26:06.799Z,10.00
2019-05-20T03:28:34.475Z,9.90
2019-05-20T03:31:02.246Z,9.90
2019-05-20T03:33:30.017Z,9.80
2019-05-20T03:35:57.706Z,9.90
2019-05-20T03:38:25.361Z,10.00
2019-05-20T03:40:53.017Z,10.00
2019-05-20T03:43:20.783Z,10.10
2019-05-20T03:45:48.436Z,10.10
2019-05-20T03:48:16.344Z,10.10
2019-05-20T03:50:44.445Z,10.20
2019-05-20T03:53:12.173Z,10.20
2019-05-20T03:55:39.816Z,10.40
2019-05-20T03:58:07.491Z,10.40
2019-05-20T04:00:42.676Z,10.50
2019-05-20T04:03:10.361Z,10.40
2019-05-20T04:05:38.881Z,10.40
2019-05-20T04:08:06.670Z,10.40
2019-05-20T04:10:34.310Z,10.40
2019-05-20T04:13:01.969Z,10.50
2019-05-20T04:15:29.917Z,10.90
2019-05-20T04:17:57.636Z,10.80
2019-05-20T04:20:25.427Z,10.80
2019-05-20T04:22:53.469Z,11.00
2019-05-20T04:25:21.117Z,11.10
2019-05-20T04:27:48.768Z,11.10
2019-05-20T04:30:19.057Z,11.20
2019-05-20T04:32:46.320Z,11.40
2019-05-20T04:35:21.902Z,11.40
2019-05-20T04:37:43.632Z,11.50
2019-05-20T04:40:11.326Z,11.60
2019-05-20T04:42:39.042Z,11.60
2019-05-20T04:45:07.513Z,11.70
2019-05-20T04:47:35.296Z,11.80
2019-05-20T04:50:04.902Z,11.90
2019-05-20T04:52:32.833Z,11.90
2019-05-20T04:55:00.475Z,12.00
2019-05-20T04:57:28.171Z,12.20
2019-05-20T04:59:55.849Z,12.30
2019-05-20T05:02:23.535Z,12.40
2019-05-20T05:04:51.227Z,12.30
2019-05-20T05:07:18.980Z,12.40
2019-05-20T05:09:46.631Z,12.40
2019-05-20T05:12:14.684Z,12.50
2019-05-20T05:14:42.446Z,12.60
2019-05-20T05:17:10.455Z,12.70
2019-05-20T05:19:38.308Z,12.70
2019-05-20T05:22:06.023Z,12.60
2019-05-20T05:24:33.939Z,12.60
2019-05-20T05:27:01.735Z,12.70
2019-05-20T05:29:29.382Z,12.70
2019-05-20T05:31:57.369Z,12.90
2019-05-20T05:34:25.221Z,13.00
2019-05-20T05:36:52.887Z,13.00
2019-05-20T05:39:20.620Z,13.10
2019-05-20T05:41:48.466Z,13.10
2019-05-20T05:44:16.115Z,13.10
2019-05-20T05:46:44.044Z,13.10
2019-05-20T05:49:11.836Z,13.00
2019-05-20T05:51:39.783Z,12.90
2019-05-20T05:54:07.502Z,12.80
2019-05-20T05:56:35.254Z,12.70
2019-05-20T05:59:02.931Z,12.90
2019-05-20T06:01:30.757Z,12.90
2019-05-20T06:03:58.754Z,12.90
2019-05-20T06:06:26.435Z,12.90
2019-05-20T06:08:54.221Z,12.80
2019-05-20T06:11:21.868Z,12.80
2019-05-20T06:13:49.583Z,12.90
2019-05-20T06:16:33.553Z,12.90
2019-05-20T06:18:46.828Z,12.90
2019-05-20T06:21:14.472Z,13.00
2019-05-20T06:23:42.250Z,12.90
2019-05-20T06:26:09.947Z,13.20
2019-05-20T06:28:37.652Z,13.40
2019-05-20T06:31:05.504Z,13.60
2019-05-20T06:33:33.215Z,13.60
2019-05-20T06:36:00.981Z,13.70
2019-05-20T06:38:37.052Z,13.70
2019-05-20T06:41:06.433Z,13.80
2019-05-20T06:43:34.163Z,13.80
2019-05-20T06:46:02.250Z,13.80
2019-05-20T06:48:29.973Z,13.80
2019-05-20T06:50:57.643Z,13.80
2019-05-20T06:53:25.328Z,13.60
2019-05-20T06:55:53.336Z,13.50
2019-05-20T06:58:21.101Z,13.50
2019-05-20T07:00:49.175Z,13.40
2019-05-20T07:03:16.845Z,13.40
2019-05-20T07:05:44.765Z,13.50
2019-05-20T07:08:12.481Z,13.60
2019-05-20T07:10:40.199Z,13.60
2019-05-20T07:13:08.055Z,13.60
2019-05-20T07:15:35.779Z,13.70
2019-05-20T07:18:03.505Z,13.70
2019-05-20T07:20:31.353Z,13.70
2019-05-20T07:22:59.013Z,13.80
2019-05-20T07:25:27.097Z,13.90
2019-05-20T07:27:55.250Z,14.00
2019-05-20T07:30:22.997Z,14.00
2019-05-20T07:32:50.675Z,13.90
2019-05-20T07:35:29.638Z,14.00
2019-05-20T07:37:47.835Z,14.10
2019-05-20T07:40:17.378Z,14.20
2019-05-20T07:42:45.461Z,14.20
2019-05-20T07:45:13.379Z,14.30
2019-05-20T07:47:41.566Z,14.20
2019-05-20T07:50:10.306Z,14.30
2019-05-20T07:52:38.220Z,14.30
2019-05-20T07:55:06.439Z,14.40
2019-05-20T07:57:35.779Z,14.50
2019-05-20T08:00:04.267Z,14.50
2019-05-20T08:02:32.491Z,14.40
2019-05-20T08:05:00.655Z,14.40
2019-05-20T08:07:49.909Z,14.50
2019-05-20T08:09:58.291Z,14.40
2019-05-20T08:12:25.975Z,14.50
2019-05-20T08:14:53.680Z,14.70
2019-05-20T08:17:21.825Z,14.70
2019-05-20T08:19:49.495Z,14.80
2019-05-20T08:22:17.291Z,15.00
2019-05-20T08:24:44.939Z,15.10
2019-05-20T08:27:12.676Z,15.20
2019-05-20T08:29:40.374Z,15.20
2019-05-20T08:32:08.028Z,15.40
2019-05-20T08:34:36.587Z,15.60
2019-05-20T08:37:04.955Z,15.90
2019-05-20T08:39:32.965Z,16.00
2019-05-20T08:42:00.607Z,15.90
2019-05-20T08:44:28.384Z,16.20
2019-05-20T08:46:56.041Z,16.20
2019-05-20T08:49:23.690Z,16.30
2019-05-20T08:51:51.491Z,16.30
2019-05-20T08:54:19.199Z,16.40
2019-05-20T08:56:49.267Z,16.50
2019-05-20T08:59:16.571Z,16.40
2019-05-20T09:01:44.232Z,16.40
2019-05-20T09:04:11.896Z,16.40
2019-05-20T09:06:40.164Z,16.50
2019-05-20T09:09:11.785Z,16.50
2019-05-20T09:11:37.264Z,16.40
2019-05-20T09:14:05.526Z,16.40
2019-05-20T09:16:33.564Z,16.10
2019-05-20T09:19:01.231Z,16.10
2019-05-20T09:21:29.156Z,16.10
2019-05-20T09:23:56.819Z,16.00
2019-05-20T09:26:24.530Z,15.90
2019-05-20T09:28:52.253Z,15.80
2019-05-20T09:31:19.987Z,15.60
2019-05-20T09:33:47.819Z,15.50
2019-05-20T09:36:15.667Z,15.40
2019-05-20T09:38:43.408Z,15.30
2019-05-20T09:41:11.388Z,15.30
2019-05-20T09:43:39.238Z,15.30
2019-05-20T09:46:08.354Z,15.20
2019-05-20T09:48:36.412Z,15.30
2019-05-20T09:51:04.201Z,15.20
2019-05-20T09:53:31.851Z,15.20
2019-05-20T09:55:59.575Z,15.30
2019-05-20T09:58:27.359Z,15.20
2019-05-20T10:00:55.059Z,15.10
2019-05-20T10:03:22.708Z,15.10
2019-05-20T10:05:50.777Z,15.10
2019-05-20T10:08:34.463Z,15.00
2019-05-20T10:10:48.462Z,14.80
2019-05-20T10:13:16.183Z,14.70
2019-05-20T10:15:43.882Z,14.60
2019-05-20T10:18:11.585Z,14.50
2019-05-20T10:20:39.271Z,14.50
2019-05-20T10:23:07.357Z,14.50
2019-05-20T10:25:35.412Z,14.50
2019-05-20T10:28:03.128Z,14.50
2019-05-20T10:30:30.851Z,14.50
2019-05-20T10:32:58.630Z,14.40
2019-05-20T10:35:26.358Z,14.40
2019-05-20T10:37:54.086Z,14.40
2019-05-20T10:40:22.200Z,14.40
2019-05-20T10:42:49.861Z,14.50
2019-05-20T10:45:18.014Z,14.50
2019-05-20T10:47:45.791Z,14.50
2019-05-20T10:50:13.614Z,14.50
2019-05-20T10:52:41.266Z,14.50
2019-05-20T10:55:09.124Z,14.50
2019-05-20T10:57:36.842Z,14.50
2019-05-20T11:00:06.270Z,14.40
2019-05-20T11:02:34.063Z,14.40
2019-05-20T11:05:01.752Z,14.40
2019-05-20T11:07:29.475Z,14.50
2019-05-20T11:09:57.836Z,14.40
2019-05-20T11:12:25.488Z,14.40
2019-05-20T11:14:53.213Z,14.40
2019-05-20T11:17:21.074Z,14.30
2019-05-20T11:19:48.793Z,14.30
2019-05-20T11:22:16.461Z,14.20
2019-05-20T11:24:44.150Z,14.10
2019-05-20T11:27:11.869Z,14.20
2019-05-20T11:29:39.532Z,14.20
2019-05-20T11:32:07.385Z,14.20
2019-05-20T11:34:35.058Z,14.10
2019-05-20T11:37:02.817Z,14.20
2019-05-20T11:39:33.736Z,14.20
2019-05-20T11:42:00.109Z,14.30
2019-05-20T11:44:27.770Z,14.40
2019-05-20T11:46:55.468Z,14.40
2019-05-20T11:49:23.182Z,14.70
2019-05-20T11:51:51.088Z,15.00
2019-05-20T11:54:19.191Z,14.90
2019-05-20T11:56:46.885Z,14.90
2019-05-20T11:59:14.540Z,15.00
2019-05-20T12:01:42.385Z,15.10
2019-05-20T12:04:10.030Z,15.20
2019-05-20T12:06:37.683Z,15.00
2019-05-20T12:09:06.290Z,15.00
2019-05-20T12:11:33.947Z,15.00
2019-05-20T12:14:01.588Z,15.00
2019-05-20T12:16:29.385Z,15.10
2019-05-20T12:18:57.032Z,15.10
2019-05-20T12:21:24.676Z,15.20
2019-05-20T12:23:52.389Z,15.20
2019-05-20T12:26:22.644Z,15.30
2019-05-20T12:28:49.423Z,15.40
2019-05-20T12:31:17.115Z,15.30
2019-05-20T12:33:44.775Z,15.40
2019-05-20T12:36:12.499Z,15.60
2019-05-20T12:38:40.193Z,15.60
2019-05-20T12:41:07.891Z,15.60
2019-05-20T12:43:35.573Z,15.40
2019-05-20T12:46:03.514Z,15.50
2019-05-20T12:48:31.329Z,15.50
2019-05-20T12:50:59.234Z,15.50
2019-05-20T12:53:27.010Z,15.70
2019-05-20T12:55:54.674Z,15.70
2019-05-20T12:58:22.652Z,15.90
2019-05-20T13:00:50.608Z,15.90
2019-05-20T13:03:18.431Z,15.90
2019-05-20T13:05:46.230Z,15.90
2019-05-20T13:08:13.948Z,16.20
2019-05-20T13:10:41.680Z,16.10
2019-05-20T13:13:09.605Z,16.30
2019-05-20T13:15:37.467Z,16.30
2019-05-20T13:18:05.524Z,16.50
2019-05-20T13:20:33.256Z,16.50
2019-05-20T13:23:01.154Z,16.60
2019-05-20T13:25:28.931Z,16.60
2019-05-20T13:27:56.572Z,16.60
2019-05-20T13:30:25.204Z,16.50
2019-05-20T13:32:52.860Z,19.20
2019-05-20T13:35:20.573Z,16.20
2019-05-20T13:37:48.366Z,16.10
2019-05-20T13:40:16.659Z,16.10
2019-05-20T13:42:44.586Z,16.00
2019-05-20T13:45:12.436Z,15.80
2019-05-20T13:47:40.354Z,15.50
2019-05-20T13:50:08.682Z,15.40
2019-05-20T13:52:36.458Z,15.30
2019-05-20T13:55:05.543Z,15.10
2019-05-20T13:57:33.289Z,15.20
2019-05-20T14:00:01.063Z,15.00
2019-05-20T14:02:28.713Z,15.00
2019-05-20T14:04:56.368Z,14.90
2019-05-20T14:07:24.047Z,15.20
2019-05-20T14:09:52.178Z,15.20
2019-05-20T14:14:47.491Z,15.50
2019-05-20T14:17:15.275Z,15.60
2019-05-20T14:19:42.928Z,16.20
2019-05-20T14:22:10.574Z,16.20
2019-05-20T14:24:38.355Z,16.40
2019-05-20T14:27:06.079Z,16.30
2019-05-20T14:29:33.865Z,16.90
2019-05-20T14:32:01.540Z,16.40
2019-05-20T14:34:29.203Z,16.30
2019-05-20T14:36:57.004Z,16.30
2019-05-20T14:39:24.730Z,16.20
2019-05-20T14:41:52.390Z,16.50
2019-05-20T14:44:20.179Z,17.00
2019-05-20T14:46:47.837Z,17.20
2019-05-20T14:49:15.492Z,17.50
2019-05-20T14:51:43.440Z,17.40
2019-05-20T14:54:11.097Z,17.50
2019-05-20T14:56:38.752Z,18.20
2019-05-20T14:59:06.614Z,18.20
2019-05-20T15:01:34.384Z,18.20
2019-05-20T15:04:02.063Z,18.20
2019-05-20T15:06:29.748Z,17.90
2019-05-20T15:08:57.508Z,17.90
2019-05-20T15:11:37.760Z,17.80
2019-05-20T15:13:54.616Z,17.90
2019-05-20T15:16:22.724Z,20.10
2019-05-20T15:18:50.449Z,19.70
2019-05-20T15:21:18.754Z,20.80
2019-05-20T15:23:47.030Z,22.20
2019-05-20T15:26:14.685Z,21.40
2019-05-20T15:28:42.870Z,21.50
2019-05-20T15:31:10.831Z,23.00
2019-05-20T15:33:38.575Z,24.30
2019-05-20T15:36:06.223Z,24.60
2019-05-20T15:38:34.272Z,24.60
2019-05-20T15:41:01.967Z,23.50
2019-05-20T15:43:29.666Z,22.20
2019-05-20T15:45:57.484Z,21.70
2019-05-20T15:48:25.136Z,21.10
2019-05-20T15:50:53.102Z,20.50
2019-05-20T15:53:20.962Z,20.40
2019-05-20T15:55:48.598Z,19.90
2019-05-20T15:58:16.262Z,19.80
2019-05-20T16:00:44.364Z,19.60
2019-05-20T16:03:12.082Z,19.50
2019-05-20T16:05:39.847Z,18.60
2019-05-20T16:08:07.663Z,17.90
2019-05-20T16:10:35.311Z,17.70
2019-05-20T16:13:02.965Z,17.50
2019-05-20T16:15:30.755Z,17.50
2019-05-20T16:17:58.805Z,17.40
2019-05-20T16:20:26.868Z,17.30
2019-05-20T16:25:22.067Z,17.90
2019-05-20T16:27:49.789Z,18.10
2019-05-20T16:30:17.646Z,18.30
2019-05-20T16:32:45.311Z,18.90
2019-05-20T16:35:13.334Z,20.70
2019-05-20T16:37:41.227Z,20.60
2019-05-20T16:40:09.084Z,18.80
2019-05-20T16:42:37.116Z,18.70
2019-05-20T16:45:11.676Z,18.00
2019-05-20T16:47:37.693Z,17.50
2019-05-20T16:50:06.104Z,17.00
2019-05-20T16:52:34.437Z,16.60
2019-05-20T16:55:02.203Z,16.40
2019-05-20T16:57:29.907Z,16.20
2019-05-20T16:59:58.082Z,16.10
2019-05-20T17:02:25.736Z,15.90
2019-05-20T17:04:53.385Z,16.00
2019-05-20T17:12:16.003Z,15.80
2019-05-20T17:14:43.804Z,15.70
2019-05-20T17:17:11.440Z,15.80
2019-05-20T17:19:39.170Z,15.80
2019-05-20T17:22:07.255Z,15.90
2019-05-20T17:24:35.020Z,15.90
2019-05-20T17:27:02.756Z,16.20
2019-05-20T17:29:30.649Z,16.90
2019-05-20T17:31:58.697Z,16.80
2019-05-20T17:34:26.672Z,16.80
2019-05-20T17:36:54.455Z,16.40
2019-05-20T17:39:22.176Z,16.30
2019-05-20T17:41:49.831Z,16.00
2019-05-20T17:44:17.690Z,15.90
2019-05-20T17:46:45.612Z,15.90
2019-05-20T17:49:13.343Z,15.70
2019-05-20T17:51:43.423Z,15.50
2019-05-20T17:54:11.029Z,15.50
2019-05-20T17:56:38.793Z,15.40
2019-05-20T17:59:06.579Z,15.50
2019-05-20T18:04:01.606Z,15.20
2019-05-20T18:06:29.459Z,15.10
2019-05-20T18:08:58.815Z,15.00
2019-05-20T18:11:26.473Z,14.90
2019-05-20T18:13:54.316Z,14.80
2019-05-20T18:16:21.976Z,14.80
2019-05-20T18:18:49.651Z,14.80
2019-05-20T18:21:17.492Z,14.70
2019-05-20T18:23:45.204Z,14.80
2019-05-20T18:26:12.927Z,14.70
2019-05-20T18:28:40.799Z,14.70
2019-05-20T18:31:08.466Z,14.50
2019-05-20T18:33:36.111Z,14.50
2019-05-20T18:36:03.973Z,14.50
2019-05-20T18:40:59.001Z,14.40
2019-05-20T18:43:26.851Z,14.40
2019-05-20T18:45:54.743Z,14.30
2019-05-20T18:48:22.474Z,14.30
2019-05-20T18:50:50.589Z,14.30
2019-05-20T18:53:18.494Z,14.30
2019-05-20T18:55:46.140Z,14.40
2019-05-20T18:58:13.882Z,14.30
2019-05-20T19:00:41.571Z,14.20
2019-05-20T19:03:09.297Z,14.30
2019-05-20T19:05:36.981Z,14.20
2019-05-20T19:10:32.143Z,14.20
2019-05-20T19:13:00.050Z,14.20
2019-05-20T19:15:27.771Z,14.20
2019-05-20T19:17:55.420Z,14.10
2019-05-20T19:20:23.314Z,14.10
2019-05-20T19:22:51.129Z,14.10
2019-05-20T19:25:19.053Z,14.00
2019-05-20T19:30:14.403Z,14.00
2019-05-20T19:32:42.039Z,14.10
2019-05-20T19:35:10.167Z,14.00
2019-05-20T19:37:38.159Z,14.00
2019-05-20T19:40:06.962Z,14.00
2019-05-20T19:42:35.832Z,13.80
2019-05-20T19:45:03.771Z,13.90
2019-05-20T19:47:31.501Z,13.80
2019-05-20T19:49:59.772Z,13.80
2019-05-20T19:52:27.507Z,13.70
2019-05-20T19:54:55.196Z,13.70
2019-05-20T19:57:22.841Z,13.60
2019-05-20T19:59:50.619Z,13.60
2019-05-20T20:02:18.597Z,13.70
2019-05-20T20:04:46.319Z,13.60
2019-05-20T20:07:14.114Z,13.60
2019-05-20T20:09:41.762Z,13.60
2019-05-20T20:12:09.419Z,13.70
2019-05-20T20:14:37.104Z,13.60
2019-05-20T20:17:04.827Z,13.60
2019-05-20T20:19:32.495Z,13.60
2019-05-20T20:22:00.246Z,13.60
2019-05-20T20:24:27.976Z,13.60
2019-05-20T20:26:55.640Z,13.50
2019-05-20T20:29:23.430Z,13.60
2019-05-20T20:31:51.412Z,13.60
2019-05-20T20:34:19.132Z,13.60
2019-05-20T20:36:46.909Z,13.60
2019-05-20T20:39:14.635Z,13.50
2019-05-20T20:41:42.369Z,13.50
2019-05-20T20:44:10.055Z,13.50
2019-05-20T20:46:40.545Z,13.60
2019-05-20T20:49:07.483Z,13.50
2019-05-20T20:51:35.141Z,13.60
2019-05-20T20:54:02.907Z,13.60
2019-05-20T20:56:34.229Z,13.60
2019-05-20T20:59:01.580Z,13.40
2019-05-20T21:01:29.540Z,13.30
2019-05-20T21:03:57.194Z,13.40
2019-05-20T21:06:24.860Z,13.40
2019-05-20T21:08:52.797Z,13.40
2019-05-20T21:11:20.451Z,13.30
2019-05-20T21:13:48.148Z,13.30
2019-05-20T21:16:15.781Z,13.30
2019-05-20T21:18:43.787Z,13.30
2019-05-20T21:21:11.453Z,13.20
2019-05-20T21:23:39.136Z,13.20
2019-05-20T21:26:06.787Z,13.30
2019-05-20T21:28:34.478Z,13.30
2019-05-20T21:31:02.140Z,13.20
2019-05-20T21:33:29.878Z,13.20
2019-05-20T21:35:57.680Z,13.30
2019-05-20T21:38:25.416Z,13.30
2019-05-20T21:40:53.063Z,13.20
2019-05-20T21:43:20.847Z,13.10
2019-05-20T21:45:48.486Z,13.00
2019-05-20T21:48:16.455Z,13.00
2019-05-20T21:50:44.309Z,12.80
2019-05-20T21:53:12.023Z,12.70
2019-05-20T21:55:39.748Z,12.60
2019-05-20T21:58:07.548Z,12.60
2019-05-20T22:00:43.091Z,12.60
2019-05-20T22:03:23.521Z,12.60
2019-05-20T22:05:40.143Z,12.60
2019-05-20T22:08:07.850Z,12.60
2019-05-20T22:10:35.580Z,12.50
2019-05-20T22:19:23.123Z,12.70
2019-05-20T22:21:58.373Z,12.70
2019-05-20T22:24:26.027Z,12.70
2019-05-20T22:26:53.768Z,12.80
2019-05-20T22:29:21.483Z,12.70
2019-05-20T22:31:49.155Z,12.70
2019-05-20T22:34:16.940Z,12.70
2019-05-20T22:36:44.850Z,12.80
2019-05-20T22:39:12.533Z,12.70
2019-05-20T22:41:40.263Z,12.80
2019-05-20T22:44:07.921Z,12.80
2019-05-20T22:49:03.337Z,12.70
2019-05-20T22:51:30.982Z,12.70
2019-05-20T22:53:59.001Z,12.60
2019-05-20T22:56:26.899Z,12.50
2019-05-20T22:58:54.555Z,12.40
2019-05-20T23:01:22.473Z,12.30
2019-05-20T23:03:56.300Z,12.20
2019-05-20T23:06:19.540Z,12.20
2019-05-20T23:08:47.221Z,12.10
2019-05-20T23:11:14.906Z,12.10
2019-05-20T23:13:42.553Z,12.00
2019-05-20T23:16:10.214Z,12.00
2019-05-20T23:18:37.887Z,11.90
2019-05-20T23:21:05.540Z,11.80
2019-05-20T23:23:33.222Z,11.80
2019-05-20T23:26:00.874Z,11.70
2019-05-20T23:28:28.563Z,11.60
2019-05-20T23:30:56.213Z,11.60
2019-05-20T23:33:23.995Z,11.60
2019-05-20T23:35:51.816Z,11.60
2019-05-20T23:38:19.475Z,11.50
2019-05-20T23:40:47.274Z,11.50
2019-05-20T23:43:14.926Z,11.40
2019-05-20T23:45:43.046Z,11.40
2019-05-20T23:48:10.846Z,11.30
2019-05-20T23:50:38.503Z,11.10
2019-05-20T23:53:06.172Z,11.10
2019-05-20T23:55:33.932Z,11.10
2019-05-20T23:58:01.651Z,11.10
